sensor_id;sensor_type;location;lat;lon;timestamp;P1;durP1;ratioP1;P2;durP2;ratioP2
68757;SDS011;55747;51.998;4.466;2022-07-17T00:02:09;6.13;;;2.50;;
68757;SDS011;55747;51.998;4.466;2022-07-17T00:04:35;4.88;;;2.40;;
68757;SDS011;55747;51.998;4.466;2022-07-17T00:07:01;6.53;;;3.20;;
68757;SDS011;55747;51.998;4.466;2022-07-17T00:09:26;8.63;;;3.00;;
68757;SDS011;55747;51.998;4.466;2022-07-17T00:11:51;7.85;;;2.92;;
68757;SDS011;55747;51.998;4.466;2022-07-17T00:14:17;8.50;;;3.15;;
68757;SDS011;55747;51.998;4.466;2022-07-17T00:16:42;9.88;;;2.72;;
68757;SDS011;55747;51.998;4.466;2022-07-17T00:19:07;10.55;;;2.50;;
68757;SDS011;55747;51.998;4.466;2022-07-17T00:21:33;12.67;;;2.60;;
68757;SDS011;55747;51.998;4.466;2022-07-17T00:23:58;5.35;;;2.45;;
68757;SDS011;55747;51.998;4.466;2022-07-17T00:26:23;7.75;;;2.33;;
68757;SDS011;55747;51.998;4.466;2022-07-17T00:28:49;7.07;;;2.40;;
68757;SDS011;55747;51.998;4.466;2022-07-17T00:31:14;10.13;;;2.53;;
68757;SDS011;55747;51.998;4.466;2022-07-17T00:33:39;7.47;;;2.40;;
68757;SDS011;55747;51.998;4.466;2022-07-17T00:36:04;6.22;;;2.22;;
68757;SDS011;55747;51.998;4.466;2022-07-17T00:38:30;6.55;;;2.25;;
68757;SDS011;55747;51.998;4.466;2022-07-17T00:40:55;7.82;;;2.20;;
68757;SDS011;55747;51.998;4.466;2022-07-17T00:43:22;6.85;;;2.40;;
68757;SDS011;55747;51.998;4.466;2022-07-17T00:45:58;7.40;;;2.38;;
68757;SDS011;55747;51.998;4.466;2022-07-17T00:48:25;4.88;;;2.40;;
68757;SDS011;55747;51.998;4.466;2022-07-17T00:50:51;7.63;;;2.55;;
68757;SDS011;55747;51.998;4.466;2022-07-17T00:53:17;5.88;;;2.47;;
68757;SDS011;55747;51.998;4.466;2022-07-17T00:55:42;6.97;;;2.55;;
68757;SDS011;55747;51.998;4.466;2022-07-17T00:58:12;7.97;;;2.40;;
68757;SDS011;55747;51.998;4.466;2022-07-17T01:00:42;6.40;;;2.25;;
68757;SDS011;55747;51.998;4.466;2022-07-17T01:03:07;6.57;;;2.77;;
68757;SDS011;55747;51.998;4.466;2022-07-17T01:05:34;4.88;;;2.20;;
68757;SDS011;55747;51.998;4.466;2022-07-17T01:07:59;8.80;;;2.50;;
68757;SDS011;55747;51.998;4.466;2022-07-17T01:10:25;5.07;;;2.40;;
68757;SDS011;55747;51.998;4.466;2022-07-17T01:12:50;6.00;;;2.53;;
68757;SDS011;55747;51.998;4.466;2022-07-17T01:15:15;5.53;;;2.57;;
68757;SDS011;55747;51.998;4.466;2022-07-17T01:17:41;6.75;;;2.67;;
68757;SDS011;55747;51.998;4.466;2022-07-17T01:20:07;7.30;;;2.85;;
68757;SDS011;55747;51.998;4.466;2022-07-17T01:22:41;6.45;;;3.03;;
68757;SDS011;55747;51.998;4.466;2022-07-17T01:25:14;6.63;;;3.10;;
68757;SDS011;55747;51.998;4.466;2022-07-17T01:27:40;6.10;;;3.33;;
68757;SDS011;55747;51.998;4.466;2022-07-17T01:30:06;11.70;;;3.97;;
68757;SDS011;55747;51.998;4.466;2022-07-17T01:32:33;8.68;;;4.00;;
68757;SDS011;55747;51.998;4.466;2022-07-17T01:35:00;9.38;;;4.43;;
68757;SDS011;55747;51.998;4.466;2022-07-17T01:37:26;9.20;;;4.05;;
68757;SDS011;55747;51.998;4.466;2022-07-17T01:39:52;12.43;;;4.00;;
68757;SDS011;55747;51.998;4.466;2022-07-17T01:42:17;8.15;;;3.90;;
68757;SDS011;55747;51.998;4.466;2022-07-17T01:44:43;7.07;;;3.65;;
68757;SDS011;55747;51.998;4.466;2022-07-17T01:47:08;9.27;;;3.43;;
68757;SDS011;55747;51.998;4.466;2022-07-17T01:49:33;7.32;;;3.45;;
68757;SDS011;55747;51.998;4.466;2022-07-17T01:51:59;7.17;;;3.17;;
68757;SDS011;55747;51.998;4.466;2022-07-17T01:54:27;9.40;;;3.25;;
68757;SDS011;55747;51.998;4.466;2022-07-17T01:56:53;10.50;;;3.42;;
68757;SDS011;55747;51.998;4.466;2022-07-17T01:59:18;7.05;;;3.50;;
68757;SDS011;55747;51.998;4.466;2022-07-17T02:01:43;7.30;;;3.10;;
68757;SDS011;55747;51.998;4.466;2022-07-17T02:04:09;7.93;;;3.20;;
68757;SDS011;55747;51.998;4.466;2022-07-17T02:06:34;9.23;;;3.50;;
68757;SDS011;55747;51.998;4.466;2022-07-17T02:08:59;7.10;;;3.40;;
68757;SDS011;55747;51.998;4.466;2022-07-17T02:11:25;9.13;;;3.70;;
68757;SDS011;55747;51.998;4.466;2022-07-17T02:13:50;8.95;;;3.40;;
68757;SDS011;55747;51.998;4.466;2022-07-17T02:16:15;7.70;;;3.60;;
68757;SDS011;55747;51.998;4.466;2022-07-17T02:18:41;9.65;;;3.33;;
68757;SDS011;55747;51.998;4.466;2022-07-17T02:21:06;6.10;;;3.33;;
68757;SDS011;55747;51.998;4.466;2022-07-17T02:23:32;6.97;;;3.30;;
68757;SDS011;55747;51.998;4.466;2022-07-17T02:25:57;7.95;;;3.50;;
68757;SDS011;55747;51.998;4.466;2022-07-17T02:28:22;6.33;;;3.40;;
68757;SDS011;55747;51.998;4.466;2022-07-17T02:30:48;10.15;;;3.80;;
68757;SDS011;55747;51.998;4.466;2022-07-17T02:33:13;8.30;;;3.83;;
68757;SDS011;55747;51.998;4.466;2022-07-17T02:35:38;12.40;;;3.97;;
68757;SDS011;55747;51.998;4.466;2022-07-17T02:38:04;9.85;;;4.03;;
68757;SDS011;55747;51.998;4.466;2022-07-17T02:40:29;6.55;;;3.53;;
68757;SDS011;55747;51.998;4.466;2022-07-17T02:42:55;8.05;;;3.60;;
68757;SDS011;55747;51.998;4.466;2022-07-17T02:45:20;8.75;;;3.63;;
68757;SDS011;55747;51.998;4.466;2022-07-17T02:47:49;6.47;;;3.78;;
68757;SDS011;55747;51.998;4.466;2022-07-17T02:50:16;7.35;;;4.15;;
68757;SDS011;55747;51.998;4.466;2022-07-17T02:52:41;7.85;;;4.15;;
68757;SDS011;55747;51.998;4.466;2022-07-17T02:55:09;9.45;;;4.80;;
68757;SDS011;55747;51.998;4.466;2022-07-17T02:57:35;6.32;;;4.78;;
68757;SDS011;55747;51.998;4.466;2022-07-17T03:00:03;7.53;;;4.80;;
68757;SDS011;55747;51.998;4.466;2022-07-17T03:02:30;8.93;;;5.07;;
68757;SDS011;55747;51.998;4.466;2022-07-17T03:04:55;11.63;;;5.10;;
68757;SDS011;55747;51.998;4.466;2022-07-17T03:07:20;9.23;;;5.40;;
68757;SDS011;55747;51.998;4.466;2022-07-17T03:09:45;10.37;;;5.67;;
68757;SDS011;55747;51.998;4.466;2022-07-17T03:12:11;10.70;;;5.10;;
68757;SDS011;55747;51.998;4.466;2022-07-17T03:14:37;11.05;;;5.82;;
68757;SDS011;55747;51.998;4.466;2022-07-17T03:17:02;8.57;;;5.20;;
68757;SDS011;55747;51.998;4.466;2022-07-17T03:19:27;8.75;;;5.22;;
68757;SDS011;55747;51.998;4.466;2022-07-17T03:21:53;9.15;;;5.47;;
68757;SDS011;55747;51.998;4.466;2022-07-17T03:24:18;11.55;;;5.80;;
68757;SDS011;55747;51.998;4.466;2022-07-17T03:26:43;10.07;;;5.80;;
68757;SDS011;55747;51.998;4.466;2022-07-17T03:29:09;13.38;;;6.25;;
68757;SDS011;55747;51.998;4.466;2022-07-17T03:31:34;10.20;;;5.90;;
68757;SDS011;55747;51.998;4.466;2022-07-17T03:33:59;11.18;;;5.93;;
68757;SDS011;55747;51.998;4.466;2022-07-17T03:36:25;8.77;;;5.50;;
68757;SDS011;55747;51.998;4.466;2022-07-17T03:38:50;11.43;;;6.13;;
68757;SDS011;55747;51.998;4.466;2022-07-17T03:41:15;10.80;;;5.77;;
68757;SDS011;55747;51.998;4.466;2022-07-17T03:43:41;11.77;;;5.33;;
68757;SDS011;55747;51.998;4.466;2022-07-17T03:46:06;10.77;;;5.67;;
68757;SDS011;55747;51.998;4.466;2022-07-17T03:48:31;9.90;;;5.63;;
68757;SDS011;55747;51.998;4.466;2022-07-17T03:50:56;9.50;;;5.70;;
68757;SDS011;55747;51.998;4.466;2022-07-17T03:53:22;8.63;;;5.78;;
68757;SDS011;55747;51.998;4.466;2022-07-17T03:55:47;10.27;;;6.27;;
68757;SDS011;55747;51.998;4.466;2022-07-17T03:58:12;14.05;;;5.53;;
68757;SDS011;55747;51.998;4.466;2022-07-17T04:00:38;8.57;;;5.30;;
68757;SDS011;55747;51.998;4.466;2022-07-17T04:03:03;10.85;;;5.50;;
68757;SDS011;55747;51.998;4.466;2022-07-17T04:05:28;9.97;;;4.87;;
68757;SDS011;55747;51.998;4.466;2022-07-17T04:07:54;11.20;;;5.27;;
68757;SDS011;55747;51.998;4.466;2022-07-17T04:10:19;9.53;;;4.80;;
68757;SDS011;55747;51.998;4.466;2022-07-17T04:12:44;7.20;;;4.80;;
68757;SDS011;55747;51.998;4.466;2022-07-17T04:15:10;8.23;;;4.45;;
68757;SDS011;55747;51.998;4.466;2022-07-17T04:17:36;7.47;;;4.70;;
68757;SDS011;55747;51.998;4.466;2022-07-17T04:20:02;7.78;;;4.75;;
68757;SDS011;55747;51.998;4.466;2022-07-17T04:22:28;9.43;;;4.38;;
68757;SDS011;55747;51.998;4.466;2022-07-17T04:24:53;5.60;;;3.53;;
68757;SDS011;55747;51.998;4.466;2022-07-17T04:27:18;7.70;;;3.27;;
68757;SDS011;55747;51.998;4.466;2022-07-17T04:29:44;7.47;;;2.78;;
68757;SDS011;55747;51.998;4.466;2022-07-17T04:32:09;7.65;;;2.75;;
68757;SDS011;55747;51.998;4.466;2022-07-17T04:34:35;4.90;;;2.38;;
68757;SDS011;55747;51.998;4.466;2022-07-17T04:37:01;7.32;;;2.67;;
68757;SDS011;55747;51.998;4.466;2022-07-17T04:39:28;7.40;;;2.65;;
68757;SDS011;55747;51.998;4.466;2022-07-17T04:41:54;5.07;;;2.35;;
68757;SDS011;55747;51.998;4.466;2022-07-17T04:44:19;5.95;;;2.30;;
68757;SDS011;55747;51.998;4.466;2022-07-17T04:46:44;4.13;;;2.00;;
68757;SDS011;55747;51.998;4.466;2022-07-17T04:49:10;5.30;;;2.30;;
68757;SDS011;55747;51.998;4.466;2022-07-17T04:51:36;5.07;;;2.08;;
68757;SDS011;55747;51.998;4.466;2022-07-17T04:54:01;5.40;;;2.30;;
68757;SDS011;55747;51.998;4.466;2022-07-17T04:56:27;6.97;;;1.90;;
68757;SDS011;55747;51.998;4.466;2022-07-17T04:58:52;8.93;;;1.90;;
68757;SDS011;55747;51.998;4.466;2022-07-17T05:01:17;6.65;;;2.00;;
68757;SDS011;55747;51.998;4.466;2022-07-17T05:03:43;6.40;;;2.15;;
68757;SDS011;55747;51.998;4.466;2022-07-17T05:06:08;4.95;;;2.00;;
68757;SDS011;55747;51.998;4.466;2022-07-17T05:08:34;7.18;;;1.83;;
68757;SDS011;55747;51.998;4.466;2022-07-17T05:11:00;3.63;;;1.60;;
68757;SDS011;55747;51.998;4.466;2022-07-17T05:13:25;4.63;;;2.23;;
68757;SDS011;55747;51.998;4.466;2022-07-17T05:15:50;5.35;;;2.00;;
68757;SDS011;55747;51.998;4.466;2022-07-17T05:18:15;10.30;;;2.20;;
68757;SDS011;55747;51.998;4.466;2022-07-17T05:20:41;4.07;;;1.77;;
68757;SDS011;55747;51.998;4.466;2022-07-17T05:23:06;3.07;;;1.63;;
68757;SDS011;55747;51.998;4.466;2022-07-17T05:25:31;4.83;;;1.57;;
68757;SDS011;55747;51.998;4.466;2022-07-17T05:27:57;5.57;;;1.60;;
68757;SDS011;55747;51.998;4.466;2022-07-17T05:30:22;4.47;;;1.52;;
68757;SDS011;55747;51.998;4.466;2022-07-17T05:32:48;5.65;;;1.50;;
68757;SDS011;55747;51.998;4.466;2022-07-17T05:35:13;4.13;;;1.60;;
68757;SDS011;55747;51.998;4.466;2022-07-17T05:37:38;4.37;;;1.33;;
68757;SDS011;55747;51.998;4.466;2022-07-17T05:40:04;6.57;;;1.70;;
68757;SDS011;55747;51.998;4.466;2022-07-17T05:42:30;7.50;;;1.63;;
68757;SDS011;55747;51.998;4.466;2022-07-17T05:44:55;6.37;;;1.60;;
68757;SDS011;55747;51.998;4.466;2022-07-17T05:47:21;4.77;;;1.60;;
68757;SDS011;55747;51.998;4.466;2022-07-17T05:49:46;6.83;;;1.37;;
68757;SDS011;55747;51.998;4.466;2022-07-17T05:52:11;4.00;;;1.40;;
68757;SDS011;55747;51.998;4.466;2022-07-17T05:54:36;6.07;;;1.60;;
68757;SDS011;55747;51.998;4.466;2022-07-17T05:57:02;3.53;;;1.47;;
68757;SDS011;55747;51.998;4.466;2022-07-17T05:59:27;5.90;;;1.45;;
68757;SDS011;55747;51.998;4.466;2022-07-17T06:01:53;5.20;;;1.52;;
68757;SDS011;55747;51.998;4.466;2022-07-17T06:04:18;6.50;;;1.57;;
68757;SDS011;55747;51.998;4.466;2022-07-17T06:06:43;6.70;;;1.40;;
68757;SDS011;55747;51.998;4.466;2022-07-17T06:09:09;7.50;;;1.30;;
68757;SDS011;55747;51.998;4.466;2022-07-17T06:11:34;3.95;;;1.38;;
68757;SDS011;55747;51.998;4.466;2022-07-17T06:13:59;5.28;;;1.48;;
68757;SDS011;55747;51.998;4.466;2022-07-17T06:16:25;5.47;;;1.45;;
68757;SDS011;55747;51.998;4.466;2022-07-17T06:18:50;5.38;;;1.50;;
68757;SDS011;55747;51.998;4.466;2022-07-17T06:21:15;6.13;;;1.40;;
68757;SDS011;55747;51.998;4.466;2022-07-17T06:23:41;6.43;;;1.30;;
68757;SDS011;55747;51.998;4.466;2022-07-17T06:26:06;4.30;;;1.23;;
68757;SDS011;55747;51.998;4.466;2022-07-17T06:28:31;2.70;;;1.00;;
68757;SDS011;55747;51.998;4.466;2022-07-17T06:30:57;5.27;;;1.10;;
68757;SDS011;55747;51.998;4.466;2022-07-17T06:33:22;3.13;;;1.10;;
68757;SDS011;55747;51.998;4.466;2022-07-17T06:35:48;2.57;;;0.90;;
68757;SDS011;55747;51.998;4.466;2022-07-17T06:38:13;4.03;;;1.20;;
68757;SDS011;55747;51.998;4.466;2022-07-17T06:40:39;5.18;;;1.25;;
68757;SDS011;55747;51.998;4.466;2022-07-17T06:43:05;6.15;;;1.15;;
68757;SDS011;55747;51.998;4.466;2022-07-17T06:45:31;5.97;;;1.25;;
68757;SDS011;55747;51.998;4.466;2022-07-17T06:47:56;6.00;;;1.63;;
68757;SDS011;55747;51.998;4.466;2022-07-17T06:50:22;5.27;;;1.10;;
68757;SDS011;55747;51.998;4.466;2022-07-17T06:52:47;5.18;;;0.98;;
68757;SDS011;55747;51.998;4.466;2022-07-17T06:55:12;4.73;;;1.27;;
68757;SDS011;55747;51.998;4.466;2022-07-17T06:57:38;5.72;;;1.10;;
68757;SDS011;55747;51.998;4.466;2022-07-17T07:00:04;4.93;;;1.30;;
68757;SDS011;55747;51.998;4.466;2022-07-17T07:02:29;4.60;;;1.05;;
68757;SDS011;55747;51.998;4.466;2022-07-17T07:04:55;3.50;;;1.20;;
68757;SDS011;55747;51.998;4.466;2022-07-17T07:07:20;5.07;;;1.20;;
68757;SDS011;55747;51.998;4.466;2022-07-17T07:09:45;6.90;;;1.03;;
68757;SDS011;55747;51.998;4.466;2022-07-17T07:12:11;4.87;;;1.13;;
68757;SDS011;55747;51.998;4.466;2022-07-17T07:14:36;7.15;;;1.30;;
68757;SDS011;55747;51.998;4.466;2022-07-17T07:17:01;3.20;;;1.10;;
68757;SDS011;55747;51.998;4.466;2022-07-17T07:19:27;4.90;;;1.30;;
68757;SDS011;55747;51.998;4.466;2022-07-17T07:21:52;3.40;;;1.13;;
68757;SDS011;55747;51.998;4.466;2022-07-17T07:24:17;4.63;;;1.10;;
68757;SDS011;55747;51.998;4.466;2022-07-17T07:26:43;2.37;;;1.20;;
68757;SDS011;55747;51.998;4.466;2022-07-17T07:29:08;3.23;;;1.00;;
68757;SDS011;55747;51.998;4.466;2022-07-17T07:31:33;3.60;;;1.27;;
68757;SDS011;55747;51.998;4.466;2022-07-17T07:33:58;4.67;;;1.03;;
68757;SDS011;55747;51.998;4.466;2022-07-17T07:36:24;3.72;;;1.10;;
68757;SDS011;55747;51.998;4.466;2022-07-17T07:38:49;5.00;;;0.90;;
68757;SDS011;55747;51.998;4.466;2022-07-17T07:41:14;4.23;;;1.20;;
68757;SDS011;55747;51.998;4.466;2022-07-17T07:43:40;2.80;;;1.10;;
68757;SDS011;55747;51.998;4.466;2022-07-17T07:46:05;5.78;;;1.20;;
68757;SDS011;55747;51.998;4.466;2022-07-17T07:48:31;4.53;;;1.20;;
68757;SDS011;55747;51.998;4.466;2022-07-17T07:50:56;3.30;;;1.13;;
68757;SDS011;55747;51.998;4.466;2022-07-17T07:53:22;5.97;;;1.52;;
68757;SDS011;55747;51.998;4.466;2022-07-17T07:55:47;3.20;;;1.10;;
68757;SDS011;55747;51.998;4.466;2022-07-17T07:58:12;3.47;;;1.03;;
68757;SDS011;55747;51.998;4.466;2022-07-17T08:00:39;4.50;;;1.20;;
68757;SDS011;55747;51.998;4.466;2022-07-17T08:03:06;4.40;;;1.20;;
68757;SDS011;55747;51.998;4.466;2022-07-17T08:05:32;3.15;;;1.10;;
68757;SDS011;55747;51.998;4.466;2022-07-17T08:07:57;3.65;;;1.10;;
68757;SDS011;55747;51.998;4.466;2022-07-17T08:10:23;4.18;;;1.20;;
68757;SDS011;55747;51.998;4.466;2022-07-17T08:12:48;4.00;;;1.10;;
68757;SDS011;55747;51.998;4.466;2022-07-17T08:15:15;5.05;;;1.30;;
68757;SDS011;55747;51.998;4.466;2022-07-17T08:17:42;4.07;;;1.17;;
68757;SDS011;55747;51.998;4.466;2022-07-17T08:20:07;4.93;;;1.40;;
68757;SDS011;55747;51.998;4.466;2022-07-17T08:22:33;3.33;;;1.05;;
68757;SDS011;55747;51.998;4.466;2022-07-17T08:24:59;2.55;;;0.90;;
68757;SDS011;55747;51.998;4.466;2022-07-17T08:27:24;4.80;;;1.40;;
68757;SDS011;55747;51.998;4.466;2022-07-17T08:29:49;3.23;;;1.10;;
68757;SDS011;55747;51.998;4.466;2022-07-17T08:32:15;3.80;;;1.20;;
68757;SDS011;55747;51.998;4.466;2022-07-17T08:34:40;6.78;;;1.30;;
68757;SDS011;55747;51.998;4.466;2022-07-17T08:37:05;2.63;;;1.10;;
68757;SDS011;55747;51.998;4.466;2022-07-17T08:39:31;4.55;;;1.13;;
68757;SDS011;55747;51.998;4.466;2022-07-17T08:41:56;5.60;;;1.37;;
68757;SDS011;55747;51.998;4.466;2022-07-17T08:44:21;2.35;;;1.13;;
68757;SDS011;55747;51.998;4.466;2022-07-17T08:46:46;2.57;;;1.10;;
68757;SDS011;55747;51.998;4.466;2022-07-17T08:49:13;3.70;;;1.30;;
68757;SDS011;55747;51.998;4.466;2022-07-17T08:51:39;2.63;;;1.20;;
68757;SDS011;55747;51.998;4.466;2022-07-17T08:54:04;6.20;;;1.27;;
68757;SDS011;55747;51.998;4.466;2022-07-17T08:56:29;3.13;;;1.10;;
68757;SDS011;55747;51.998;4.466;2022-07-17T08:58:55;2.10;;;1.00;;
68757;SDS011;55747;51.998;4.466;2022-07-17T09:01:21;3.60;;;1.15;;
68757;SDS011;55747;51.998;4.466;2022-07-17T09:04:00;2.78;;;1.15;;
68757;SDS011;55747;51.998;4.466;2022-07-17T09:06:31;2.60;;;1.20;;
68757;SDS011;55747;51.998;4.466;2022-07-17T09:11:29;2.63;;;1.10;;
68757;SDS011;55747;51.998;4.466;2022-07-17T09:14:05;3.03;;;1.27;;
68757;SDS011;55747;51.998;4.466;2022-07-17T09:16:31;5.67;;;1.40;;
68757;SDS011;55747;51.998;4.466;2022-07-17T09:19:00;2.78;;;1.15;;
68757;SDS011;55747;51.998;4.466;2022-07-17T09:21:26;3.42;;;1.40;;
68757;SDS011;55747;51.998;4.466;2022-07-17T09:24:04;6.65;;;1.33;;
68757;SDS011;55747;51.998;4.466;2022-07-17T09:26:35;3.50;;;1.35;;
68757;SDS011;55747;51.998;4.466;2022-07-17T09:29:08;3.28;;;1.30;;
68757;SDS011;55747;51.998;4.466;2022-07-17T09:31:36;2.22;;;1.25;;
68757;SDS011;55747;51.998;4.466;2022-07-17T09:34:02;2.45;;;1.08;;
68757;SDS011;55747;51.998;4.466;2022-07-17T09:36:27;3.20;;;1.25;;
68757;SDS011;55747;51.998;4.466;2022-07-17T09:38:54;2.90;;;1.20;;
68757;SDS011;55747;51.998;4.466;2022-07-17T09:41:25;4.03;;;1.27;;
68757;SDS011;55747;51.998;4.466;2022-07-17T09:44:01;4.43;;;1.20;;
68757;SDS011;55747;51.998;4.466;2022-07-17T09:46:28;1.98;;;1.10;;
68757;SDS011;55747;51.998;4.466;2022-07-17T09:48:58;1.92;;;1.10;;
68757;SDS011;55747;51.998;4.466;2022-07-17T09:51:35;1.92;;;1.00;;
68757;SDS011;55747;51.998;4.466;2022-07-17T09:54:03;2.78;;;1.10;;
68757;SDS011;55747;51.998;4.466;2022-07-17T09:56:31;3.33;;;1.20;;
68757;SDS011;55747;51.998;4.466;2022-07-17T10:01:31;2.60;;;1.20;;
68757;SDS011;55747;51.998;4.466;2022-07-17T10:03:57;3.15;;;1.20;;
68757;SDS011;55747;51.998;4.466;2022-07-17T10:06:23;2.63;;;1.00;;
68757;SDS011;55747;51.998;4.466;2022-07-17T10:08:51;3.67;;;1.20;;
68757;SDS011;55747;51.998;4.466;2022-07-17T10:11:18;3.53;;;1.40;;
68757;SDS011;55747;51.998;4.466;2022-07-17T10:13:46;2.90;;;1.08;;
68757;SDS011;55747;51.998;4.466;2022-07-17T10:16:12;2.28;;;1.30;;
68757;SDS011;55747;51.998;4.466;2022-07-17T10:18:42;2.08;;;1.23;;
68757;SDS011;55747;51.998;4.466;2022-07-17T10:23:34;2.13;;;1.17;;
68757;SDS011;55747;51.998;4.466;2022-07-17T10:26:00;2.50;;;1.05;;
68757;SDS011;55747;51.998;4.466;2022-07-17T10:28:37;2.72;;;1.30;;
68757;SDS011;55747;51.998;4.466;2022-07-17T10:31:08;3.50;;;1.30;;
68757;SDS011;55747;51.998;4.466;2022-07-17T10:33:34;2.95;;;1.20;;
68757;SDS011;55747;51.998;4.466;2022-07-17T10:36:00;3.42;;;1.23;;
68757;SDS011;55747;51.998;4.466;2022-07-17T10:38:26;2.47;;;1.20;;
68757;SDS011;55747;51.998;4.466;2022-07-17T10:41:02;2.20;;;1.10;;
68757;SDS011;55747;51.998;4.466;2022-07-17T10:43:39;3.10;;;1.40;;
68757;SDS011;55747;51.998;4.466;2022-07-17T10:46:09;1.55;;;1.13;;
68757;SDS011;55747;51.998;4.466;2022-07-17T10:48:34;3.30;;;1.30;;
68757;SDS011;55747;51.998;4.466;2022-07-17T10:51:00;2.60;;;1.35;;
68757;SDS011;55747;51.998;4.466;2022-07-17T10:53:32;3.05;;;1.40;;
68757;SDS011;55747;51.998;4.466;2022-07-17T10:56:05;2.70;;;1.23;;
68757;SDS011;55747;51.998;4.466;2022-07-17T10:58:36;2.58;;;1.40;;
68757;SDS011;55747;51.998;4.466;2022-07-17T11:03:44;3.50;;;1.30;;
68757;SDS011;55747;51.998;4.466;2022-07-17T11:06:16;3.85;;;1.60;;
68757;SDS011;55747;51.998;4.466;2022-07-17T11:08:49;2.85;;;1.63;;
68757;SDS011;55747;51.998;4.466;2022-07-17T11:11:18;2.72;;;1.77;;
68757;SDS011;55747;51.998;4.466;2022-07-17T11:13:45;2.35;;;1.90;;
68757;SDS011;55747;51.998;4.466;2022-07-17T11:16:11;5.40;;;2.80;;
68757;SDS011;55747;51.998;4.466;2022-07-17T11:18:37;3.88;;;2.10;;
68757;SDS011;55747;51.998;4.466;2022-07-17T11:21:11;2.88;;;2.10;;
68757;SDS011;55747;51.998;4.466;2022-07-17T11:23:37;3.50;;;2.17;;
68757;SDS011;55747;51.998;4.466;2022-07-17T11:26:15;3.38;;;2.10;;
68757;SDS011;55747;51.998;4.466;2022-07-17T11:28:43;5.70;;;2.30;;
68757;SDS011;55747;51.998;4.466;2022-07-17T11:33:55;3.25;;;2.10;;
68757;SDS011;55747;51.998;4.466;2022-07-17T11:36:31;3.55;;;2.22;;
68757;SDS011;55747;51.998;4.466;2022-07-17T11:39:08;4.90;;;2.63;;
68757;SDS011;55747;51.998;4.466;2022-07-17T11:41:37;5.25;;;2.70;;
68757;SDS011;55747;51.998;4.466;2022-07-17T11:44:05;5.72;;;2.45;;
68757;SDS011;55747;51.998;4.466;2022-07-17T11:46:35;5.32;;;2.45;;
68757;SDS011;55747;51.998;4.466;2022-07-17T11:49:01;4.18;;;2.55;;
68757;SDS011;55747;51.998;4.466;2022-07-17T11:51:41;5.07;;;2.25;;
68757;SDS011;55747;51.998;4.466;2022-07-17T11:54:14;3.58;;;2.10;;
68757;SDS011;55747;51.998;4.466;2022-07-17T11:56:41;3.22;;;2.28;;
68757;SDS011;55747;51.998;4.466;2022-07-17T11:59:09;4.60;;;2.20;;
68757;SDS011;55747;51.998;4.466;2022-07-17T12:01:42;3.15;;;2.08;;
68757;SDS011;55747;51.998;4.466;2022-07-17T12:04:10;6.25;;;2.30;;
68757;SDS011;55747;51.998;4.466;2022-07-17T12:06:37;4.97;;;2.40;;
68757;SDS011;55747;51.998;4.466;2022-07-17T12:09:03;5.10;;;2.47;;
68757;SDS011;55747;51.998;4.466;2022-07-17T12:11:29;3.17;;;2.10;;
68757;SDS011;55747;51.998;4.466;2022-07-17T12:13:55;3.92;;;2.08;;
68757;SDS011;55747;51.998;4.466;2022-07-17T12:16:30;4.85;;;2.10;;
68757;SDS011;55747;51.998;4.466;2022-07-17T12:21:26;4.03;;;2.50;;
68757;SDS011;55747;51.998;4.466;2022-07-17T12:24:17;3.55;;;2.30;;
68757;SDS011;55747;51.998;4.466;2022-07-17T12:26:45;3.92;;;2.40;;
68757;SDS011;55747;51.998;4.466;2022-07-17T12:29:10;3.90;;;2.43;;
68757;SDS011;55747;51.998;4.466;2022-07-17T12:31:35;3.53;;;2.50;;
68757;SDS011;55747;51.998;4.466;2022-07-17T12:34:00;5.43;;;2.70;;
68757;SDS011;55747;51.998;4.466;2022-07-17T12:36:26;5.30;;;2.97;;
68757;SDS011;55747;51.998;4.466;2022-07-17T12:38:51;5.13;;;3.30;;
68757;SDS011;55747;51.998;4.466;2022-07-17T12:41:16;6.30;;;2.90;;
68757;SDS011;55747;51.998;4.466;2022-07-17T12:43:42;4.68;;;3.40;;
68757;SDS011;55747;51.998;4.466;2022-07-17T12:46:08;4.25;;;3.45;;
68757;SDS011;55747;51.998;4.466;2022-07-17T12:48:33;4.70;;;3.28;;
68757;SDS011;55747;51.998;4.466;2022-07-17T12:50:59;3.78;;;2.78;;
68757;SDS011;55747;51.998;4.466;2022-07-17T12:53:25;4.72;;;2.40;;
68757;SDS011;55747;51.998;4.466;2022-07-17T12:55:51;6.45;;;2.92;;
68757;SDS011;55747;51.998;4.466;2022-07-17T12:58:16;4.03;;;2.70;;
68757;SDS011;55747;51.998;4.466;2022-07-17T13:00:41;5.33;;;2.80;;
68757;SDS011;55747;51.998;4.466;2022-07-17T13:03:07;4.03;;;2.73;;
68757;SDS011;55747;51.998;4.466;2022-07-17T13:05:32;4.67;;;2.90;;
68757;SDS011;55747;51.998;4.466;2022-07-17T13:07:57;3.43;;;2.80;;
68757;SDS011;55747;51.998;4.466;2022-07-17T13:10:23;4.88;;;3.15;;
68757;SDS011;55747;51.998;4.466;2022-07-17T13:12:48;4.68;;;3.08;;
68757;SDS011;55747;51.998;4.466;2022-07-17T13:15:14;3.60;;;3.20;;
68757;SDS011;55747;51.998;4.466;2022-07-17T13:17:39;5.93;;;3.40;;
68757;SDS011;55747;51.998;4.466;2022-07-17T13:20:05;4.47;;;3.10;;
68757;SDS011;55747;51.998;4.466;2022-07-17T13:22:31;6.55;;;2.90;;
68757;SDS011;55747;51.998;4.466;2022-07-17T13:24:57;7.22;;;3.08;;
68757;SDS011;55747;51.998;4.466;2022-07-17T13:27:22;3.53;;;2.93;;
68757;SDS011;55747;51.998;4.466;2022-07-17T13:29:47;4.72;;;2.97;;
68757;SDS011;55747;51.998;4.466;2022-07-17T13:32:13;4.83;;;3.43;;
68757;SDS011;55747;51.998;4.466;2022-07-17T13:34:40;8.60;;;3.50;;
68757;SDS011;55747;51.998;4.466;2022-07-17T13:37:06;5.32;;;3.72;;
68757;SDS011;55747;51.998;4.466;2022-07-17T13:39:33;5.07;;;3.60;;
68757;SDS011;55747;51.998;4.466;2022-07-17T13:41:59;4.93;;;3.60;;
68757;SDS011;55747;51.998;4.466;2022-07-17T13:44:24;4.45;;;3.28;;
68757;SDS011;55747;51.998;4.466;2022-07-17T13:46:49;4.83;;;3.13;;
68757;SDS011;55747;51.998;4.466;2022-07-17T13:49:15;6.07;;;3.17;;
68757;SDS011;55747;51.998;4.466;2022-07-17T13:51:40;3.80;;;3.10;;
68757;SDS011;55747;51.998;4.466;2022-07-17T13:54:06;4.32;;;3.53;;
68757;SDS011;55747;51.998;4.466;2022-07-17T13:56:32;5.93;;;3.60;;
68757;SDS011;55747;51.998;4.466;2022-07-17T13:58:58;6.18;;;3.60;;
68757;SDS011;55747;51.998;4.466;2022-07-17T14:01:24;5.90;;;3.92;;
68757;SDS011;55747;51.998;4.466;2022-07-17T14:03:49;4.75;;;4.05;;
68757;SDS011;55747;51.998;4.466;2022-07-17T14:06:15;6.05;;;4.07;;
68757;SDS011;55747;51.998;4.466;2022-07-17T14:08:40;6.20;;;4.00;;
68757;SDS011;55747;51.998;4.466;2022-07-17T14:11:06;5.93;;;3.85;;
68757;SDS011;55747;51.998;4.466;2022-07-17T14:13:31;7.30;;;4.50;;
68757;SDS011;55747;51.998;4.466;2022-07-17T14:15:56;6.57;;;3.97;;
68757;SDS011;55747;51.998;4.466;2022-07-17T14:18:22;6.27;;;4.10;;
68757;SDS011;55747;51.998;4.466;2022-07-17T14:20:47;5.47;;;4.37;;
68757;SDS011;55747;51.998;4.466;2022-07-17T14:23:12;5.50;;;4.10;;
68757;SDS011;55747;51.998;4.466;2022-07-17T14:25:38;5.15;;;4.13;;
68757;SDS011;55747;51.998;4.466;2022-07-17T14:28:04;5.10;;;4.00;;
68757;SDS011;55747;51.998;4.466;2022-07-17T14:30:29;5.35;;;3.90;;
68757;SDS011;55747;51.998;4.466;2022-07-17T14:32:57;4.10;;;3.60;;
68757;SDS011;55747;51.998;4.466;2022-07-17T14:35:22;6.00;;;4.15;;
68757;SDS011;55747;51.998;4.466;2022-07-17T14:37:48;7.13;;;3.87;;
68757;SDS011;55747;51.998;4.466;2022-07-17T14:40:13;5.00;;;3.75;;
68757;SDS011;55747;51.998;4.466;2022-07-17T14:42:39;5.85;;;4.00;;
68757;SDS011;55747;51.998;4.466;2022-07-17T14:45:05;4.82;;;3.55;;
68757;SDS011;55747;51.998;4.466;2022-07-17T14:47:31;4.80;;;4.03;;
68757;SDS011;55747;51.998;4.466;2022-07-17T14:49:56;6.10;;;4.50;;
68757;SDS011;55747;51.998;4.466;2022-07-17T14:52:21;4.77;;;3.53;;
68757;SDS011;55747;51.998;4.466;2022-07-17T14:54:47;4.70;;;3.23;;
68757;SDS011;55747;51.998;4.466;2022-07-17T14:57:12;7.82;;;4.05;;